Resende, Brazil
Current Conditions -  °F | °C
As of 5:00 PM on Saturday 25 Oct 2014 (Local Time) from SBGW Reporting Station
Broken Clouds Broken Clouds  
Wind Chill: 77°   Ceiling: 10000
Heat Index: 79°   Visibility: 6mi
Dew Point: 64°   Wind: 3mph
Humidity: 65%   Direction: 10°N
Pressure: 29.91"   Gusts: NA
Location:  22.46°S, 44.45°W
Report Text: SBGW 251900Z 01003KT 9999 SCT030 BKN100 25/18 Q1013
Loading
Personal Weather Stations






























Interactive Weather Map
Tropical Storm Tracking
New forecast layout! Learn more

10-Day Weather Forecast

Advertisements
Track Severe Weather on mobile